sensor_id;sensor_type;location;lat;lon;timestamp;P1;durP1;ratioP1;P2;durP2;ratioP2
4365;SDS011;2196;47.422;9.656;2022-08-19T00:00:32;31.23;;;27.83;;
4365;SDS011;2196;47.422;9.656;2022-08-19T00:03:01;28.67;;;25.57;;
4365;SDS011;2196;47.422;9.656;2022-08-19T00:05:28;24.30;;;21.90;;
4365;SDS011;2196;47.422;9.656;2022-08-19T00:07:56;28.13;;;24.77;;
4365;SDS011;2196;47.422;9.656;2022-08-19T00:10:25;30.77;;;27.00;;
4365;SDS011;2196;47.422;9.656;2022-08-19T00:12:52;28.87;;;25.63;;
4365;SDS011;2196;47.422;9.656;2022-08-19T00:15:20;28.43;;;24.07;;
4365;SDS011;2196;47.422;9.656;2022-08-19T00:17:48;30.27;;;25.33;;
4365;SDS011;2196;47.422;9.656;2022-08-19T00:20:16;28.20;;;25.30;;
4365;SDS011;2196;47.422;9.656;2022-08-19T00:22:45;31.50;;;27.97;;
4365;SDS011;2196;47.422;9.656;2022-08-19T00:25:13;28.23;;;24.07;;
4365;SDS011;2196;47.422;9.656;2022-08-19T00:27:42;29.60;;;26.53;;
4365;SDS011;2196;47.422;9.656;2022-08-19T00:30:10;31.63;;;27.27;;
4365;SDS011;2196;47.422;9.656;2022-08-19T00:32:38;29.80;;;26.60;;
4365;SDS011;2196;47.422;9.656;2022-08-19T00:35:06;32.17;;;27.97;;
4365;SDS011;2196;47.422;9.656;2022-08-19T00:37:34;29.00;;;25.87;;
4365;SDS011;2196;47.422;9.656;2022-08-19T00:40:02;30.23;;;26.13;;
4365;SDS011;2196;47.422;9.656;2022-08-19T00:42:30;30.27;;;25.57;;
4365;SDS011;2196;47.422;9.656;2022-08-19T00:44:59;25.33;;;22.63;;
4365;SDS011;2196;47.422;9.656;2022-08-19T00:47:26;23.47;;;20.93;;
4365;SDS011;2196;47.422;9.656;2022-08-19T00:49:54;23.80;;;21.30;;
4365;SDS011;2196;47.422;9.656;2022-08-19T00:52:25;23.50;;;21.13;;
4365;SDS011;2196;47.422;9.656;2022-08-19T00:54:55;28.37;;;22.33;;
4365;SDS011;2196;47.422;9.656;2022-08-19T00:57:25;25.00;;;22.33;;
4365;SDS011;2196;47.422;9.656;2022-08-19T00:59:56;29.63;;;23.90;;
4365;SDS011;2196;47.422;9.656;2022-08-19T01:02:27;28.23;;;25.27;;
4365;SDS011;2196;47.422;9.656;2022-08-19T01:04:55;30.63;;;27.17;;
4365;SDS011;2196;47.422;9.656;2022-08-19T01:07:23;29.53;;;26.40;;
4365;SDS011;2196;47.422;9.656;2022-08-19T01:09:50;32.30;;;25.73;;
4365;SDS011;2196;47.422;9.656;2022-08-19T01:12:17;32.90;;;27.87;;
4365;SDS011;2196;47.422;9.656;2022-08-19T01:14:44;32.23;;;27.27;;
4365;SDS011;2196;47.422;9.656;2022-08-19T01:17:14;31.90;;;27.17;;
4365;SDS011;2196;47.422;9.656;2022-08-19T01:19:42;30.60;;;26.03;;
4365;SDS011;2196;47.422;9.656;2022-08-19T01:22:12;28.07;;;24.67;;
4365;SDS011;2196;47.422;9.656;2022-08-19T01:24:46;29.63;;;25.47;;
4365;SDS011;2196;47.422;9.656;2022-08-19T01:27:13;26.10;;;23.30;;
4365;SDS011;2196;47.422;9.656;2022-08-19T01:29:40;26.43;;;22.90;;
4365;SDS011;2196;47.422;9.656;2022-08-19T01:32:11;27.60;;;24.60;;
4365;SDS011;2196;47.422;9.656;2022-08-19T01:34:42;25.70;;;23.07;;
4365;SDS011;2196;47.422;9.656;2022-08-19T01:37:12;28.43;;;24.60;;
4365;SDS011;2196;47.422;9.656;2022-08-19T01:39:40;28.40;;;25.30;;
4365;SDS011;2196;47.422;9.656;2022-08-19T01:42:10;29.00;;;25.17;;
4365;SDS011;2196;47.422;9.656;2022-08-19T01:44:37;25.43;;;22.43;;
4365;SDS011;2196;47.422;9.656;2022-08-19T01:47:06;23.10;;;20.60;;
4365;SDS011;2196;47.422;9.656;2022-08-19T01:49:34;24.40;;;21.90;;
4365;SDS011;2196;47.422;9.656;2022-08-19T01:52:03;23.73;;;21.23;;
4365;SDS011;2196;47.422;9.656;2022-08-19T01:54:31;25.27;;;22.67;;
4365;SDS011;2196;47.422;9.656;2022-08-19T01:57:03;23.33;;;20.93;;
4365;SDS011;2196;47.422;9.656;2022-08-19T01:59:35;26.80;;;22.43;;
4365;SDS011;2196;47.422;9.656;2022-08-19T02:02:03;23.70;;;21.33;;
4365;SDS011;2196;47.422;9.656;2022-08-19T02:04:32;25.13;;;22.37;;
4365;SDS011;2196;47.422;9.656;2022-08-19T02:07:00;22.47;;;20.23;;
4365;SDS011;2196;47.422;9.656;2022-08-19T02:09:27;21.07;;;18.97;;
4365;SDS011;2196;47.422;9.656;2022-08-19T02:11:54;17.87;;;16.17;;
4365;SDS011;2196;47.422;9.656;2022-08-19T02:14:21;16.50;;;15.00;;
4365;SDS011;2196;47.422;9.656;2022-08-19T02:16:49;15.47;;;14.13;;
4365;SDS011;2196;47.422;9.656;2022-08-19T02:19:16;19.50;;;17.63;;
4365;SDS011;2196;47.422;9.656;2022-08-19T02:21:43;19.30;;;17.40;;
4365;SDS011;2196;47.422;9.656;2022-08-19T02:24:10;19.07;;;17.37;;
4365;SDS011;2196;47.422;9.656;2022-08-19T02:26:38;20.63;;;18.43;;
4365;SDS011;2196;47.422;9.656;2022-08-19T02:29:05;19.97;;;17.90;;
4365;SDS011;2196;47.422;9.656;2022-08-19T02:31:32;19.20;;;17.30;;
4365;SDS011;2196;47.422;9.656;2022-08-19T02:34:00;19.90;;;17.70;;
4365;SDS011;2196;47.422;9.656;2022-08-19T02:36:28;16.40;;;14.90;;
4365;SDS011;2196;47.422;9.656;2022-08-19T02:38:56;16.80;;;15.40;;
4365;SDS011;2196;47.422;9.656;2022-08-19T02:41:23;16.20;;;14.83;;
4365;SDS011;2196;47.422;9.656;2022-08-19T02:43:52;15.70;;;13.80;;
4365;SDS011;2196;47.422;9.656;2022-08-19T02:46:20;11.67;;;10.70;;
4365;SDS011;2196;47.422;9.656;2022-08-19T02:48:50;13.27;;;12.27;;
4365;SDS011;2196;47.422;9.656;2022-08-19T02:51:20;14.20;;;12.90;;
4365;SDS011;2196;47.422;9.656;2022-08-19T02:53:49;13.20;;;12.20;;
4365;SDS011;2196;47.422;9.656;2022-08-19T02:56:16;13.57;;;12.50;;
4365;SDS011;2196;47.422;9.656;2022-08-19T02:58:44;12.97;;;11.87;;
4365;SDS011;2196;47.422;9.656;2022-08-19T03:01:18;14.03;;;12.90;;
4365;SDS011;2196;47.422;9.656;2022-08-19T03:03:46;13.13;;;12.13;;
4365;SDS011;2196;47.422;9.656;2022-08-19T03:06:14;12.50;;;11.53;;
4365;SDS011;2196;47.422;9.656;2022-08-19T03:08:43;14.57;;;13.17;;
4365;SDS011;2196;47.422;9.656;2022-08-19T03:11:12;14.10;;;13.00;;
4365;SDS011;2196;47.422;9.656;2022-08-19T03:13:40;13.00;;;11.97;;
4365;SDS011;2196;47.422;9.656;2022-08-19T03:16:08;13.63;;;12.53;;
4365;SDS011;2196;47.422;9.656;2022-08-19T03:18:36;12.00;;;11.10;;
4365;SDS011;2196;47.422;9.656;2022-08-19T03:21:03;12.60;;;11.63;;
4365;SDS011;2196;47.422;9.656;2022-08-19T03:23:31;16.67;;;15.17;;
4365;SDS011;2196;47.422;9.656;2022-08-19T03:26:02;16.37;;;14.87;;
4365;SDS011;2196;47.422;9.656;2022-08-19T03:28:30;17.20;;;15.63;;
4365;SDS011;2196;47.422;9.656;2022-08-19T03:30:58;17.33;;;15.73;;
4365;SDS011;2196;47.422;9.656;2022-08-19T03:33:27;16.53;;;15.03;;
4365;SDS011;2196;47.422;9.656;2022-08-19T03:36:03;14.80;;;13.60;;
4365;SDS011;2196;47.422;9.656;2022-08-19T03:38:32;18.80;;;16.87;;
4365;SDS011;2196;47.422;9.656;2022-08-19T03:41:06;16.27;;;14.77;;
4365;SDS011;2196;47.422;9.656;2022-08-19T03:43:35;15.37;;;13.87;;
4365;SDS011;2196;47.422;9.656;2022-08-19T03:46:03;14.63;;;13.33;;
4365;SDS011;2196;47.422;9.656;2022-08-19T03:48:32;17.73;;;15.97;;
4365;SDS011;2196;47.422;9.656;2022-08-19T03:51:01;19.50;;;17.70;;
4365;SDS011;2196;47.422;9.656;2022-08-19T03:53:29;18.57;;;16.70;;
4365;SDS011;2196;47.422;9.656;2022-08-19T03:55:57;17.63;;;15.93;;
4365;SDS011;2196;47.422;9.656;2022-08-19T03:58:26;19.93;;;18.00;;
4365;SDS011;2196;47.422;9.656;2022-08-19T04:00:54;19.20;;;17.30;;
4365;SDS011;2196;47.422;9.656;2022-08-19T04:03:22;20.53;;;18.63;;
4365;SDS011;2196;47.422;9.656;2022-08-19T04:05:49;20.10;;;17.77;;
4365;SDS011;2196;47.422;9.656;2022-08-19T04:08:17;18.07;;;16.47;;
4365;SDS011;2196;47.422;9.656;2022-08-19T04:10:45;19.13;;;17.33;;
4365;SDS011;2196;47.422;9.656;2022-08-19T04:13:12;19.53;;;17.83;;
4365;SDS011;2196;47.422;9.656;2022-08-19T04:15:42;23.73;;;19.97;;
4365;SDS011;2196;47.422;9.656;2022-08-19T04:18:12;18.50;;;16.70;;
4365;SDS011;2196;47.422;9.656;2022-08-19T04:20:40;19.60;;;17.90;;
4365;SDS011;2196;47.422;9.656;2022-08-19T04:23:09;17.83;;;16.23;;
4365;SDS011;2196;47.422;9.656;2022-08-19T04:25:38;20.43;;;18.30;;
4365;SDS011;2196;47.422;9.656;2022-08-19T04:28:06;17.33;;;15.67;;
4365;SDS011;2196;47.422;9.656;2022-08-19T04:30:39;19.97;;;17.80;;
4365;SDS011;2196;47.422;9.656;2022-08-19T04:33:09;19.17;;;17.37;;
4365;SDS011;2196;47.422;9.656;2022-08-19T04:35:39;20.10;;;18.20;;
4365;SDS011;2196;47.422;9.656;2022-08-19T04:38:09;18.70;;;16.87;;
4365;SDS011;2196;47.422;9.656;2022-08-19T04:40:39;19.43;;;17.53;;
4365;SDS011;2196;47.422;9.656;2022-08-19T04:43:25;18.13;;;16.40;;
4365;SDS011;2196;47.422;9.656;2022-08-19T04:45:54;17.33;;;15.63;;
4365;SDS011;2196;47.422;9.656;2022-08-19T04:48:21;19.63;;;17.63;;
4365;SDS011;2196;47.422;9.656;2022-08-19T04:50:51;18.67;;;16.90;;
4365;SDS011;2196;47.422;9.656;2022-08-19T04:53:22;17.80;;;16.10;;
4365;SDS011;2196;47.422;9.656;2022-08-19T04:55:50;19.53;;;17.67;;
4365;SDS011;2196;47.422;9.656;2022-08-19T04:58:17;20.60;;;18.43;;
4365;SDS011;2196;47.422;9.656;2022-08-19T05:00:45;17.97;;;16.27;;
4365;SDS011;2196;47.422;9.656;2022-08-19T05:03:13;18.57;;;16.97;;
4365;SDS011;2196;47.422;9.656;2022-08-19T05:05:42;19.47;;;17.57;;
4365;SDS011;2196;47.422;9.656;2022-08-19T05:08:11;17.50;;;15.70;;
4365;SDS011;2196;47.422;9.656;2022-08-19T05:10:38;17.50;;;15.90;;
4365;SDS011;2196;47.422;9.656;2022-08-19T05:13:07;17.33;;;15.63;;
4365;SDS011;2196;47.422;9.656;2022-08-19T05:15:35;16.60;;;15.03;;
4365;SDS011;2196;47.422;9.656;2022-08-19T05:18:02;15.93;;;14.37;;
4365;SDS011;2196;47.422;9.656;2022-08-19T05:20:48;13.90;;;12.73;;
4365;SDS011;2196;47.422;9.656;2022-08-19T05:23:33;15.50;;;14.10;;
4365;SDS011;2196;47.422;9.656;2022-08-19T05:26:00;13.90;;;12.60;;
4365;SDS011;2196;47.422;9.656;2022-08-19T05:28:27;17.17;;;15.77;;
4365;SDS011;2196;47.422;9.656;2022-08-19T05:30:54;15.13;;;13.83;;
4365;SDS011;2196;47.422;9.656;2022-08-19T05:33:22;13.70;;;12.57;;
4365;SDS011;2196;47.422;9.656;2022-08-19T05:35:50;16.17;;;14.27;;
4365;SDS011;2196;47.422;9.656;2022-08-19T05:38:17;15.97;;;14.37;;
4365;SDS011;2196;47.422;9.656;2022-08-19T05:40:45;17.60;;;15.43;;
4365;SDS011;2196;47.422;9.656;2022-08-19T05:43:13;17.97;;;16.40;;
4365;SDS011;2196;47.422;9.656;2022-08-19T05:45:41;17.60;;;15.90;;
4365;SDS011;2196;47.422;9.656;2022-08-19T05:48:10;16.60;;;14.90;;
4365;SDS011;2196;47.422;9.656;2022-08-19T05:50:38;18.53;;;16.60;;
4365;SDS011;2196;47.422;9.656;2022-08-19T05:53:07;15.63;;;14.30;;
4365;SDS011;2196;47.422;9.656;2022-08-19T05:55:35;17.73;;;15.93;;
4365;SDS011;2196;47.422;9.656;2022-08-19T05:58:05;17.90;;;16.10;;
4365;SDS011;2196;47.422;9.656;2022-08-19T06:00:33;17.17;;;15.47;;
4365;SDS011;2196;47.422;9.656;2022-08-19T06:03:00;18.63;;;16.57;;
4365;SDS011;2196;47.422;9.656;2022-08-19T06:05:31;16.30;;;14.73;;
4365;SDS011;2196;47.422;9.656;2022-08-19T06:07:59;15.03;;;13.53;;
4365;SDS011;2196;47.422;9.656;2022-08-19T06:10:28;17.73;;;15.80;;
4365;SDS011;2196;47.422;9.656;2022-08-19T06:12:55;18.13;;;16.03;;
4365;SDS011;2196;47.422;9.656;2022-08-19T06:15:22;15.00;;;13.47;;
4365;SDS011;2196;47.422;9.656;2022-08-19T06:17:50;16.03;;;14.53;;
4365;SDS011;2196;47.422;9.656;2022-08-19T06:20:17;15.30;;;13.93;;
4365;SDS011;2196;47.422;9.656;2022-08-19T06:22:46;15.23;;;13.87;;
4365;SDS011;2196;47.422;9.656;2022-08-19T06:25:15;14.23;;;12.93;;
4365;SDS011;2196;47.422;9.656;2022-08-19T06:27:44;13.23;;;12.13;;
4365;SDS011;2196;47.422;9.656;2022-08-19T06:30:11;13.83;;;12.63;;
4365;SDS011;2196;47.422;9.656;2022-08-19T06:32:39;13.53;;;12.27;;
4365;SDS011;2196;47.422;9.656;2022-08-19T06:35:06;15.00;;;13.60;;
4365;SDS011;2196;47.422;9.656;2022-08-19T06:37:33;13.80;;;12.50;;
4365;SDS011;2196;47.422;9.656;2022-08-19T06:40:02;12.77;;;11.43;;
4365;SDS011;2196;47.422;9.656;2022-08-19T06:42:30;14.10;;;12.80;;
4365;SDS011;2196;47.422;9.656;2022-08-19T06:44:59;15.63;;;13.37;;
4365;SDS011;2196;47.422;9.656;2022-08-19T06:47:28;15.13;;;13.73;;
4365;SDS011;2196;47.422;9.656;2022-08-19T06:49:57;16.17;;;14.63;;
4365;SDS011;2196;47.422;9.656;2022-08-19T06:52:27;16.60;;;15.00;;
4365;SDS011;2196;47.422;9.656;2022-08-19T06:54:54;17.30;;;15.63;;
4365;SDS011;2196;47.422;9.656;2022-08-19T06:57:22;17.73;;;15.83;;
4365;SDS011;2196;47.422;9.656;2022-08-19T06:59:50;16.93;;;15.30;;
4365;SDS011;2196;47.422;9.656;2022-08-19T07:02:19;15.57;;;14.17;;
4365;SDS011;2196;47.422;9.656;2022-08-19T07:04:46;16.33;;;14.80;;
4365;SDS011;2196;47.422;9.656;2022-08-19T07:07:14;14.90;;;13.53;;
4365;SDS011;2196;47.422;9.656;2022-08-19T07:09:42;15.07;;;13.87;;
4365;SDS011;2196;47.422;9.656;2022-08-19T07:12:10;14.07;;;12.90;;
4365;SDS011;2196;47.422;9.656;2022-08-19T07:14:40;15.43;;;14.03;;
4365;SDS011;2196;47.422;9.656;2022-08-19T07:17:11;14.53;;;13.23;;
4365;SDS011;2196;47.422;9.656;2022-08-19T07:19:40;15.47;;;13.97;;
4365;SDS011;2196;47.422;9.656;2022-08-19T07:22:08;17.77;;;16.13;;
4365;SDS011;2196;47.422;9.656;2022-08-19T07:24:36;16.30;;;14.90;;
4365;SDS011;2196;47.422;9.656;2022-08-19T07:27:04;15.17;;;13.87;;
4365;SDS011;2196;47.422;9.656;2022-08-19T07:29:33;16.77;;;15.37;;
4365;SDS011;2196;47.422;9.656;2022-08-19T07:32:02;16.00;;;14.40;;
4365;SDS011;2196;47.422;9.656;2022-08-19T07:34:30;16.10;;;14.30;;
4365;SDS011;2196;47.422;9.656;2022-08-19T07:37:03;15.60;;;14.17;;
4365;SDS011;2196;47.422;9.656;2022-08-19T07:39:33;15.57;;;14.17;;
4365;SDS011;2196;47.422;9.656;2022-08-19T07:42:05;17.33;;;15.63;;
4365;SDS011;2196;47.422;9.656;2022-08-19T07:44:34;17.83;;;16.03;;
4365;SDS011;2196;47.422;9.656;2022-08-19T07:47:03;16.40;;;14.70;;
4365;SDS011;2196;47.422;9.656;2022-08-19T07:49:32;16.73;;;13.70;;
4365;SDS011;2196;47.422;9.656;2022-08-19T07:52:02;18.40;;;16.50;;
4365;SDS011;2196;47.422;9.656;2022-08-19T07:54:34;15.10;;;13.70;;
4365;SDS011;2196;47.422;9.656;2022-08-19T07:57:03;15.77;;;14.20;;
4365;SDS011;2196;47.422;9.656;2022-08-19T07:59:31;14.13;;;12.93;;
4365;SDS011;2196;47.422;9.656;2022-08-19T08:01:58;16.83;;;13.57;;
4365;SDS011;2196;47.422;9.656;2022-08-19T08:04:26;16.13;;;13.70;;
4365;SDS011;2196;47.422;9.656;2022-08-19T08:07:12;15.77;;;14.17;;
4365;SDS011;2196;47.422;9.656;2022-08-19T08:09:57;16.73;;;15.13;;
4365;SDS011;2196;47.422;9.656;2022-08-19T08:12:26;16.70;;;14.57;;
4365;SDS011;2196;47.422;9.656;2022-08-19T08:14:56;15.60;;;14.10;;
4365;SDS011;2196;47.422;9.656;2022-08-19T08:17:24;14.83;;;13.53;;
4365;SDS011;2196;47.422;9.656;2022-08-19T08:19:53;16.60;;;15.00;;
4365;SDS011;2196;47.422;9.656;2022-08-19T08:22:23;16.20;;;14.53;;
4365;SDS011;2196;47.422;9.656;2022-08-19T08:25:09;15.37;;;13.90;;
4365;SDS011;2196;47.422;9.656;2022-08-19T08:27:40;14.77;;;12.37;;
4365;SDS011;2196;47.422;9.656;2022-08-19T08:30:09;14.23;;;12.47;;
4365;SDS011;2196;47.422;9.656;2022-08-19T08:32:38;13.10;;;11.83;;
4365;SDS011;2196;47.422;9.656;2022-08-19T08:35:08;13.50;;;12.10;;
4365;SDS011;2196;47.422;9.656;2022-08-19T08:37:39;14.70;;;13.30;;
4365;SDS011;2196;47.422;9.656;2022-08-19T08:40:09;14.47;;;13.10;;
4365;SDS011;2196;47.422;9.656;2022-08-19T08:42:44;15.47;;;13.83;;
4365;SDS011;2196;47.422;9.656;2022-08-19T08:45:18;13.17;;;11.93;;
4365;SDS011;2196;47.422;9.656;2022-08-19T08:47:47;13.07;;;11.77;;
4365;SDS011;2196;47.422;9.656;2022-08-19T08:50:19;15.00;;;12.57;;
4365;SDS011;2196;47.422;9.656;2022-08-19T08:52:51;14.93;;;13.43;;
4365;SDS011;2196;47.422;9.656;2022-08-19T08:55:23;13.40;;;12.07;;
4365;SDS011;2196;47.422;9.656;2022-08-19T08:57:52;12.90;;;11.80;;
4365;SDS011;2196;47.422;9.656;2022-08-19T09:00:23;13.47;;;12.27;;
4365;SDS011;2196;47.422;9.656;2022-08-19T09:02:52;13.67;;;12.37;;
4365;SDS011;2196;47.422;9.656;2022-08-19T09:05:19;12.60;;;11.43;;
4365;SDS011;2196;47.422;9.656;2022-08-19T09:07:49;13.53;;;12.20;;
4365;SDS011;2196;47.422;9.656;2022-08-19T09:10:29;13.03;;;11.97;;
4365;SDS011;2196;47.422;9.656;2022-08-19T09:13:05;13.20;;;12.00;;
4365;SDS011;2196;47.422;9.656;2022-08-19T09:15:40;13.60;;;12.37;;
4365;SDS011;2196;47.422;9.656;2022-08-19T09:18:11;13.57;;;12.17;;
4365;SDS011;2196;47.422;9.656;2022-08-19T09:20:38;14.03;;;12.53;;
4365;SDS011;2196;47.422;9.656;2022-08-19T09:23:09;14.63;;;12.90;;
4365;SDS011;2196;47.422;9.656;2022-08-19T09:25:37;11.63;;;10.53;;
4365;SDS011;2196;47.422;9.656;2022-08-19T09:28:05;9.50;;;8.80;;
4365;SDS011;2196;47.422;9.656;2022-08-19T09:30:34;8.03;;;7.33;;
4365;SDS011;2196;47.422;9.656;2022-08-19T09:33:06;7.50;;;6.87;;
4365;SDS011;2196;47.422;9.656;2022-08-19T09:35:33;6.80;;;6.30;;
4365;SDS011;2196;47.422;9.656;2022-08-19T09:38:00;6.93;;;6.47;;
4365;SDS011;2196;47.422;9.656;2022-08-19T09:40:29;5.33;;;4.93;;
4365;SDS011;2196;47.422;9.656;2022-08-19T09:42:56;5.20;;;4.80;;
4365;SDS011;2196;47.422;9.656;2022-08-19T09:45:27;4.40;;;4.20;;
4365;SDS011;2196;47.422;9.656;2022-08-19T09:47:55;3.77;;;3.57;;
4365;SDS011;2196;47.422;9.656;2022-08-19T09:50:22;4.63;;;4.33;;
4365;SDS011;2196;47.422;9.656;2022-08-19T09:52:50;6.63;;;6.10;;
4365;SDS011;2196;47.422;9.656;2022-08-19T09:55:19;6.70;;;6.10;;
4365;SDS011;2196;47.422;9.656;2022-08-19T09:57:47;8.97;;;8.27;;
4365;SDS011;2196;47.422;9.656;2022-08-19T10:00:14;6.60;;;6.20;;
4365;SDS011;2196;47.422;9.656;2022-08-19T10:02:41;9.43;;;8.63;;
4365;SDS011;2196;47.422;9.656;2022-08-19T10:05:08;9.10;;;8.43;;
4365;SDS011;2196;47.422;9.656;2022-08-19T10:07:53;8.97;;;8.23;;
4365;SDS011;2196;47.422;9.656;2022-08-19T10:10:20;7.83;;;7.33;;
4365;SDS011;2196;47.422;9.656;2022-08-19T10:12:48;7.63;;;7.13;;
4365;SDS011;2196;47.422;9.656;2022-08-19T10:15:15;6.47;;;5.97;;
4365;SDS011;2196;47.422;9.656;2022-08-19T10:17:46;6.80;;;6.20;;
4365;SDS011;2196;47.422;9.656;2022-08-19T10:20:13;6.27;;;5.87;;
4365;SDS011;2196;47.422;9.656;2022-08-19T10:22:40;6.57;;;6.03;;
4365;SDS011;2196;47.422;9.656;2022-08-19T10:25:08;9.27;;;8.47;;
4365;SDS011;2196;47.422;9.656;2022-08-19T10:27:35;9.97;;;9.17;;
4365;SDS011;2196;47.422;9.656;2022-08-19T10:30:04;10.27;;;9.37;;
4365;SDS011;2196;47.422;9.656;2022-08-19T10:32:32;11.23;;;10.13;;
4365;SDS011;2196;47.422;9.656;2022-08-19T10:34:59;8.70;;;8.00;;
4365;SDS011;2196;47.422;9.656;2022-08-19T10:37:26;8.30;;;7.60;;
4365;SDS011;2196;47.422;9.656;2022-08-19T10:39:55;8.70;;;7.97;;
4365;SDS011;2196;47.422;9.656;2022-08-19T10:42:22;9.97;;;9.07;;
4365;SDS011;2196;47.422;9.656;2022-08-19T10:44:49;11.10;;;10.10;;
4365;SDS011;2196;47.422;9.656;2022-08-19T10:47:18;9.17;;;8.37;;
4365;SDS011;2196;47.422;9.656;2022-08-19T10:49:45;8.33;;;7.73;;
4365;SDS011;2196;47.422;9.656;2022-08-19T10:52:32;6.47;;;5.97;;
4365;SDS011;2196;47.422;9.656;2022-08-19T10:54:59;4.93;;;4.63;;
4365;SDS011;2196;47.422;9.656;2022-08-19T10:57:44;5.27;;;4.87;;
4365;SDS011;2196;47.422;9.656;2022-08-19T11:00:11;6.17;;;5.67;;
4365;SDS011;2196;47.422;9.656;2022-08-19T11:02:40;8.43;;;7.82;;
4365;SDS011;2196;47.422;9.656;2022-08-19T11:05:08;6.83;;;6.30;;
4365;SDS011;2196;47.422;9.656;2022-08-19T11:07:36;7.40;;;6.83;;
4365;SDS011;2196;47.422;9.656;2022-08-19T11:10:04;7.03;;;6.43;;
4365;SDS011;2196;47.422;9.656;2022-08-19T11:12:32;7.43;;;6.73;;
4365;SDS011;2196;47.422;9.656;2022-08-19T11:14:59;7.37;;;6.87;;
4365;SDS011;2196;47.422;9.656;2022-08-19T11:17:26;6.23;;;5.73;;
4365;SDS011;2196;47.422;9.656;2022-08-19T11:19:57;5.20;;;4.77;;
4365;SDS011;2196;47.422;9.656;2022-08-19T11:22:28;4.87;;;4.13;;
4365;SDS011;2196;47.422;9.656;2022-08-19T11:24:55;4.30;;;4.00;;
4365;SDS011;2196;47.422;9.656;2022-08-19T11:27:22;3.90;;;3.70;;
4365;SDS011;2196;47.422;9.656;2022-08-19T11:29:49;4.30;;;4.00;;
4365;SDS011;2196;47.422;9.656;2022-08-19T11:32:17;2.63;;;2.43;;
4365;SDS011;2196;47.422;9.656;2022-08-19T11:34:44;2.47;;;2.37;;
4365;SDS011;2196;47.422;9.656;2022-08-19T11:37:13;1.73;;;1.73;;
4365;SDS011;2196;47.422;9.656;2022-08-19T11:39:40;1.90;;;1.80;;
4365;SDS011;2196;47.422;9.656;2022-08-19T11:42:07;1.43;;;1.33;;
4365;SDS011;2196;47.422;9.656;2022-08-19T11:44:48;1.20;;;1.20;;
4365;SDS011;2196;47.422;9.656;2022-08-19T11:47:16;1.77;;;1.70;;
4365;SDS011;2196;47.422;9.656;2022-08-19T11:49:43;2.47;;;2.37;;
4365;SDS011;2196;47.422;9.656;2022-08-19T11:52:12;2.27;;;2.10;;
4365;SDS011;2196;47.422;9.656;2022-08-19T11:54:40;2.77;;;1.67;;
4365;SDS011;2196;47.422;9.656;2022-08-19T11:57:07;2.23;;;2.03;;
4365;SDS011;2196;47.422;9.656;2022-08-19T11:59:34;1.80;;;1.60;;
4365;SDS011;2196;47.422;9.656;2022-08-19T12:02:01;1.50;;;1.50;;
4365;SDS011;2196;47.422;9.656;2022-08-19T12:04:28;1.37;;;1.37;;
4365;SDS011;2196;47.422;9.656;2022-08-19T12:06:55;1.77;;;1.67;;
4365;SDS011;2196;47.422;9.656;2022-08-19T12:09:23;1.63;;;1.63;;
4365;SDS011;2196;47.422;9.656;2022-08-19T12:11:51;1.10;;;1.10;;
4365;SDS011;2196;47.422;9.656;2022-08-19T12:14:18;1.07;;;1.03;;
4365;SDS011;2196;47.422;9.656;2022-08-19T12:16:45;1.10;;;0.90;;
4365;SDS011;2196;47.422;9.656;2022-08-19T12:19:12;1.17;;;1.17;;
4365;SDS011;2196;47.422;9.656;2022-08-19T12:21:42;1.20;;;1.10;;
4365;SDS011;2196;47.422;9.656;2022-08-19T12:24:10;0.70;;;0.70;;
4365;SDS011;2196;47.422;9.656;2022-08-19T12:26:38;1.17;;;0.83;;
4365;SDS011;2196;47.422;9.656;2022-08-19T12:29:06;1.00;;;1.00;;
4365;SDS011;2196;47.422;9.656;2022-08-19T12:31:34;0.87;;;0.87;;
4365;SDS011;2196;47.422;9.656;2022-08-19T12:34:01;0.83;;;0.60;;
4365;SDS011;2196;47.422;9.656;2022-08-19T12:36:28;0.30;;;0.30;;
4365;SDS011;2196;47.422;9.656;2022-08-19T12:38:55;0.50;;;0.50;;
4365;SDS011;2196;47.422;9.656;2022-08-19T12:41:24;0.50;;;0.50;;
4365;SDS011;2196;47.422;9.656;2022-08-19T12:43:53;2.10;;;0.50;;
4365;SDS011;2196;47.422;9.656;2022-08-19T12:46:20;0.70;;;0.50;;
4365;SDS011;2196;47.422;9.656;2022-08-19T12:48:47;0.50;;;0.40;;
4365;SDS011;2196;47.422;9.656;2022-08-19T12:51:16;0.70;;;0.50;;
4365;SDS011;2196;47.422;9.656;2022-08-19T12:53:44;0.50;;;0.50;;
4365;SDS011;2196;47.422;9.656;2022-08-19T12:56:12;0.47;;;0.47;;
4365;SDS011;2196;47.422;9.656;2022-08-19T12:58:40;1.33;;;0.60;;
4365;SDS011;2196;47.422;9.656;2022-08-19T13:01:10;0.50;;;0.50;;
4365;SDS011;2196;47.422;9.656;2022-08-19T13:03:39;0.40;;;0.40;;
4365;SDS011;2196;47.422;9.656;2022-08-19T13:06:08;0.40;;;0.40;;
4365;SDS011;2196;47.422;9.656;2022-08-19T13:08:36;1.00;;;0.40;;
4365;SDS011;2196;47.422;9.656;2022-08-19T13:11:08;0.40;;;0.40;;
4365;SDS011;2196;47.422;9.656;2022-08-19T13:13:37;0.60;;;0.60;;
4365;SDS011;2196;47.422;9.656;2022-08-19T13:16:06;0.90;;;0.90;;
4365;SDS011;2196;47.422;9.656;2022-08-19T13:18:35;1.37;;;0.73;;
4365;SDS011;2196;47.422;9.656;2022-08-19T13:21:02;0.37;;;0.37;;
4365;SDS011;2196;47.422;9.656;2022-08-19T13:23:30;0.60;;;0.40;;
4365;SDS011;2196;47.422;9.656;2022-08-19T13:25:57;1.80;;;0.60;;
4365;SDS011;2196;47.422;9.656;2022-08-19T13:28:25;1.03;;;0.70;;
4365;SDS011;2196;47.422;9.656;2022-08-19T13:31:14;0.83;;;0.60;;
4365;SDS011;2196;47.422;9.656;2022-08-19T13:34:00;0.50;;;0.50;;
4365;SDS011;2196;47.422;9.656;2022-08-19T13:36:27;0.50;;;0.50;;
4365;SDS011;2196;47.422;9.656;2022-08-19T13:38:54;0.50;;;0.50;;
4365;SDS011;2196;47.422;9.656;2022-08-19T13:41:21;1.00;;;0.53;;
4365;SDS011;2196;47.422;9.656;2022-08-19T13:43:48;1.13;;;0.50;;
4365;SDS011;2196;47.422;9.656;2022-08-19T13:46:15;0.70;;;0.70;;
4365;SDS011;2196;47.422;9.656;2022-08-19T13:48:42;0.67;;;0.60;;
4365;SDS011;2196;47.422;9.656;2022-08-19T13:51:11;0.73;;;0.73;;
4365;SDS011;2196;47.422;9.656;2022-08-19T13:53:38;0.83;;;0.83;;
4365;SDS011;2196;47.422;9.656;2022-08-19T13:56:07;1.43;;;1.43;;
4365;SDS011;2196;47.422;9.656;2022-08-19T13:58:35;2.00;;;2.00;;
4365;SDS011;2196;47.422;9.656;2022-08-19T14:01:03;1.73;;;1.63;;
4365;SDS011;2196;47.422;9.656;2022-08-19T14:03:30;2.60;;;2.30;;
4365;SDS011;2196;47.422;9.656;2022-08-19T14:05:58;1.30;;;1.30;;
4365;SDS011;2196;47.422;9.656;2022-08-19T14:08:26;2.10;;;2.00;;
4365;SDS011;2196;47.422;9.656;2022-08-19T14:10:54;1.70;;;1.60;;
4365;SDS011;2196;47.422;9.656;2022-08-19T14:13:22;1.70;;;1.60;;
4365;SDS011;2196;47.422;9.656;2022-08-19T14:15:49;1.57;;;1.47;;
4365;SDS011;2196;47.422;9.656;2022-08-19T14:18:17;2.00;;;1.90;;
4365;SDS011;2196;47.422;9.656;2022-08-19T14:20:44;1.63;;;1.63;;
4365;SDS011;2196;47.422;9.656;2022-08-19T14:23:11;1.93;;;1.80;;
4365;SDS011;2196;47.422;9.656;2022-08-19T14:25:40;1.30;;;1.30;;
4365;SDS011;2196;47.422;9.656;2022-08-19T14:28:07;1.73;;;1.63;;
4365;SDS011;2196;47.422;9.656;2022-08-19T14:30:34;2.10;;;2.00;;
4365;SDS011;2196;47.422;9.656;2022-08-19T14:33:05;1.83;;;1.73;;
4365;SDS011;2196;47.422;9.656;2022-08-19T14:35:34;1.73;;;1.40;;
4365;SDS011;2196;47.422;9.656;2022-08-19T14:38:02;1.47;;;1.37;;
4365;SDS011;2196;47.422;9.656;2022-08-19T14:40:30;1.63;;;1.63;;
4365;SDS011;2196;47.422;9.656;2022-08-19T14:43:02;1.43;;;1.43;;
4365;SDS011;2196;47.422;9.656;2022-08-19T14:45:30;1.03;;;1.03;;
4365;SDS011;2196;47.422;9.656;2022-08-19T14:48:00;0.90;;;0.90;;
4365;SDS011;2196;47.422;9.656;2022-08-19T14:50:28;1.63;;;1.53;;
4365;SDS011;2196;47.422;9.656;2022-08-19T14:53:03;1.60;;;1.53;;
4365;SDS011;2196;47.422;9.656;2022-08-19T14:55:32;1.67;;;1.67;;
4365;SDS011;2196;47.422;9.656;2022-08-19T14:58:03;2.80;;;2.67;;
4365;SDS011;2196;47.422;9.656;2022-08-19T15:00:30;3.00;;;2.90;;
4365;SDS011;2196;47.422;9.656;2022-08-19T15:02:57;3.70;;;3.43;;
4365;SDS011;2196;47.422;9.656;2022-08-19T15:05:27;3.80;;;3.60;;
4365;SDS011;2196;47.422;9.656;2022-08-19T15:07:54;3.97;;;3.67;;